Time;durP1;ratioP1;P1;durP2;ratioP2;P2;SDS_P1;SDS_P2;PMS_P1;PMS_P2;Temp;Humidity;BMP_temperature;BMP_pressure;BME280_temperature;BME280_humidity;BME280_pressure;Samples;Min_cycle;Max_cycle;Signal;HPM_P1;HPM_P2
2022/02/06 00:00:20;;;;;;;4.97;3.10;;;;;;;4.06;72.88;100542.19;5028129;28;20025;-21
2022/02/06 00:02:49;;;;;;;4.57;2.45;;;;;;;4.06;72.87;100543.09;5024838;28;20022;-21
2022/02/06 00:05:15;;;;;;;7.13;2.85;;;;;;;4.04;72.75;100539.56;5028510;28;20109;-21
2022/02/06 00:07:42;;;;;;;5.10;3.40;;;;;;;4.06;72.55;100542.19;5028172;28;20101;-22
2022/02/06 00:10:08;;;;;;;5.22;2.83;;;;;;;4.07;72.93;100523.09;5026109;28;20025;-21
2022/02/06 00:12:34;;;;;;;2.92;2.60;;;;;;;4.07;73.01;100538.75;5027670;28;20056;-23
2022/02/06 00:15:01;;;;;;;5.68;3.30;;;;;;;4.08;72.95;100533.56;5027878;28;20029;-22
2022/02/06 00:17:30;;;;;;;3.85;2.97;;;;;;;4.08;73.06;100527.47;5028202;28;20047;-21
2022/02/06 00:19:56;;;;;;;5.50;3.10;;;;;;;4.09;73.41;100532.69;5028623;28;20072;-21
2022/02/06 00:22:58;;;;;;;7.40;3.25;;;;;;;4.09;72.78;100534.44;5028807;28;20049;-21
2022/02/06 00:25:21;;;;;;;6.60;3.28;;;;;;;4.09;73.33;100527.47;5026345;28;20044;-21
2022/02/06 00:28:07;;;;;;;3.20;2.58;;;;;;;4.10;73.21;100534.44;5025714;28;20503;-21
2022/02/06 00:30:41;;;;;;;3.22;2.58;;;;;;;4.10;73.87;100542.28;5027678;28;20124;-22
2022/02/06 00:33:17;;;;;;;3.95;2.78;;;;;;;4.12;74.21;100529.25;5026673;28;20492;-21
2022/02/06 00:41:11;;;;;;;3.75;2.63;;;;;;;4.11;74.17;100511.84;5027499;28;20071;-22
2022/02/06 00:43:37;;;;;;;7.07;3.15;;;;;;;4.11;74.01;100515.31;5027080;28;20077;-21
2022/02/06 00:46:05;;;;;;;6.60;3.13;;;;;;;4.11;74.26;100511.84;5026248;28;20542;-22
2022/02/06 00:48:34;;;;;;;5.22;2.72;;;;;;;4.12;73.69;100505.75;5028260;28;20025;-21
2022/02/06 00:51:48;;;;;;;3.75;3.05;;;;;;;4.13;74.01;100502.28;5024209;28;20107;-21
2022/02/06 00:53:48;;;;;;;3.92;2.63;;;;;;;4.12;74.06;100505.75;5031256;28;20068;-21
2022/02/06 00:56:14;;;;;;;3.95;2.85;;;;;;;4.13;74.10;100504.03;5027457;28;20477;-21
2022/02/06 00:58:39;;;;;;;7.88;3.10;;;;;;;4.13;74.48;100502.28;5027143;28;20025;-21
2022/02/06 01:01:05;;;;;;;5.90;2.85;;;;;;;4.11;74.38;100504.88;5025314;28;20474;-21
2022/02/06 01:03:31;;;;;;;6.28;3.10;;;;;;;4.12;74.17;100484.88;5027811;28;20437;-22
2022/02/06 01:05:57;;;;;;;3.47;2.67;;;;;;;4.13;74.26;100485.78;5026900;28;20104;-24
2022/02/06 01:08:24;;;;;;;3.78;2.58;;;;;;;4.11;74.50;100488.34;5031033;28;20036;-21
2022/02/06 01:10:50;;;;;;;3.50;2.78;;;;;;;4.14;74.39;100477.06;5026426;28;20083;-22
2022/02/06 01:13:25;;;;;;;2.92;2.45;;;;;;;4.13;74.39;100470.97;5030509;28;20112;-21
2022/02/06 01:15:57;;;;;;;3.33;2.97;;;;;;;4.13;73.95;100476.19;5031421;28;20548;-21
2022/02/06 01:18:32;;;;;;;5.10;3.15;;;;;;;4.13;74.64;100470.97;5030572;28;20499;-21
2022/02/06 01:21:04;;;;;;;3.03;2.80;;;;;;;4.14;74.78;100477.97;5032091;28;20048;-21
2022/02/06 01:23:53;;;;;;;4.53;3.00;;;;;;;4.15;74.78;100468.38;5033734;28;20220;-21
2022/02/06 01:26:37;;;;;;;3.85;3.30;;;;;;;4.15;74.87;100460.53;5029345;28;20025;-21
2022/02/06 01:29:19;;;;;;;4.70;3.17;;;;;;;4.16;74.75;100455.34;5032030;28;20385;-21
2022/02/06 01:31:54;;;;;;;4.30;3.08;;;;;;;4.16;74.72;100439.69;5028794;28;20026;-21
2022/02/06 01:34:27;;;;;;;7.68;3.60;;;;;;;4.14;75.29;100425.75;5031721;28;20485;-23
2022/02/06 01:37:11;;;;;;;6.90;4.32;;;;;;;4.15;74.69;100430.13;5030685;28;20026;-22
2022/02/06 01:42:05;;;;;;;4.57;2.72;;;;;;;4.17;74.99;100410.09;5030279;28;20075;-23
2022/02/06 01:57:23;;;;;;;6.13;3.42;;;;;;;4.18;75.30;100395.34;5030698;28;20025;-21
2022/02/06 02:04:05;;;;;;;3.72;3.20;;;;;;;4.27;74.88;100360.63;5030109;28;20480;-21
2022/02/06 02:14:36;;;;;;;8.07;3.35;;;;;;;4.32;75.60;100328.50;5028019;28;20040;-21
2022/02/06 02:25:41;;;;;;;7.07;3.60;;;;;;;4.36;75.71;100285.91;5030006;28;20076;-21
2022/02/06 02:31:18;;;;;;;7.22;3.05;;;;;;;4.40;75.84;100263.28;5030215;28;20026;-21
2022/02/06 02:47:19;;;;;;;4.13;2.92;;;;;;;4.44;76.32;100199.78;5028962;28;20033;-21
2022/02/06 02:49:55;;;;;;;8.23;3.40;;;;;;;4.45;76.39;100191.09;5034119;28;20029;-21
2022/02/06 02:52:44;;;;;;;5.68;3.75;;;;;;;4.46;75.82;100192.84;5027734;28;20033;-23
2022/02/06 02:57:51;;;;;;;4.63;3.45;;;;;;;4.50;76.17;100188.50;5029685;28;20095;-22
2022/02/06 03:00:55;;;;;;;4.57;3.10;;;;;;;4.51;75.98;100178.94;5029743;28;20393;-21
2022/02/06 03:03:17;;;;;;;4.28;3.28;;;;;;;4.49;76.01;100203.31;5024676;28;20048;-21
2022/02/06 03:05:44;;;;;;;5.63;2.90;;;;;;;4.51;76.59;100169.38;5029730;28;20044;-21
2022/02/06 03:08:11;;;;;;;6.18;3.35;;;;;;;4.52;76.68;100186.78;5029895;28;20033;-21
2022/02/06 03:10:38;;;;;;;3.22;2.92;;;;;;;4.53;76.45;100192.91;5028873;28;20040;-26
2022/02/06 03:13:08;;;;;;;7.47;3.13;;;;;;;4.55;76.57;100178.09;5026945;28;20409;-21
2022/02/06 03:15:45;;;;;;;4.82;2.88;;;;;;;4.55;76.29;100159.81;5028719;28;20052;-21
2022/02/06 03:18:18;;;;;;;4.10;2.58;;;;;;;4.55;76.22;100184.22;5028378;28;20029;-21
2022/02/06 03:20:44;;;;;;;3.15;2.67;;;;;;;4.54;76.63;100178.97;5028188;28;20084;-21
2022/02/06 03:23:11;;;;;;;4.32;2.75;;;;;;;4.56;75.96;100162.44;5028281;28;20282;-21
2022/02/06 03:25:48;;;;;;;5.47;3.00;;;;;;;4.54;76.31;100145.03;5028961;28;20044;-21
2022/02/06 03:28:14;;;;;;;6.45;2.97;;;;;;;4.55;76.07;100139.81;5029918;28;20495;-21
2022/02/06 03:30:40;;;;;;;5.80;2.97;;;;;;;4.58;76.87;100176.41;5026647;28;20045;-22
2022/02/06 03:33:06;;;;;;;6.93;3.40;;;;;;;4.58;76.77;100154.63;5029305;28;21074;-21
2022/02/06 03:35:32;;;;;;;7.40;3.38;;;;;;;4.57;76.41;100169.41;5027214;28;20025;-21
2022/02/06 03:37:58;;;;;;;4.30;2.60;;;;;;;4.58;76.39;100145.06;5029524;28;20371;-21
2022/02/06 03:40:27;;;;;;;3.80;2.65;;;;;;;4.61;76.40;100133.75;5026005;28;20040;-21
2022/02/06 03:45:33;;;;;;;3.90;2.80;;;;;;;4.64;76.49;100135.50;5025036;28;20537;-21
2022/02/06 03:48:11;;;;;;;3.72;2.75;;;;;;;4.64;76.78;100136.38;5030153;28;20040;-22
2022/02/06 03:50:36;;;;;;;3.35;2.83;;;;;;;4.65;76.70;100139.84;5025128;28;20025;-22
2022/02/06 03:53:03;;;;;;;4.57;2.80;;;;;;;4.66;76.22;100137.25;5027838;28;20017;-21
2022/02/06 03:55:31;;;;;;;4.78;2.42;;;;;;;4.66;76.24;100126.81;5025515;28;20022;-21
2022/02/06 03:57:56;;;;;;;5.63;2.53;;;;;;;4.67;76.70;100133.78;5025081;28;20033;-22
2022/02/06 04:00:26;;;;;;;3.92;2.58;;;;;;;4.69;76.66;100120.72;5026267;28;20083;-21
2022/02/06 04:02:52;;;;;;;4.78;2.65;;;;;;;4.70;76.51;100112.03;5024923;28;20105;-21
2022/02/06 04:05:19;;;;;;;3.40;2.38;;;;;;;4.68;76.42;100109.41;5028105;28;20125;-21
2022/02/06 04:07:46;;;;;;;6.35;3.25;;;;;;;4.66;76.49;100116.34;5028299;28;20501;-21
2022/02/06 04:10:13;;;;;;;3.72;2.80;;;;;;;4.71;77.02;100104.19;5028682;28;20059;-21
2022/02/06 04:12:42;;;;;;;6.03;2.63;;;;;;;4.72;76.52;100105.97;5026551;28;20032;-21
2022/02/06 04:15:18;;;;;;;4.70;2.60;;;;;;;4.72;76.49;100102.47;5028445;28;20086;-21
2022/02/06 04:17:48;;;;;;;4.93;2.47;;;;;;;4.75;77.00;100097.25;5028815;28;20026;-21
2022/02/06 04:20:15;;;;;;;2.33;2.13;;;;;;;4.74;76.89;100109.44;5026412;28;20057;-21
2022/02/06 04:22:41;;;;;;;6.50;2.15;;;;;;;4.77;77.28;100082.44;5026182;28;20032;-21
2022/02/06 04:25:07;;;;;;;2.95;2.40;;;;;;;4.78;76.76;100083.34;5028225;28;20473;-25
2022/02/06 04:27:33;;;;;;;3.70;2.58;;;;;;;4.79;76.81;100085.06;5026387;28;20389;-22
2022/02/06 04:29:59;;;;;;;4.53;2.20;;;;;;;4.79;76.83;100079.84;5028371;28;20029;-21
2022/02/06 04:32:27;;;;;;;2.53;2.20;;;;;;;4.79;77.12;100070.28;5028692;28;20375;-22
2022/02/06 04:34:55;;;;;;;3.75;1.95;;;;;;;4.80;76.69;100060.72;5027536;28;20393;-21
2022/02/06 04:37:35;;;;;;;2.40;2.20;;;;;;;4.81;77.15;100075.50;5025040;28;20038;-21
2022/02/06 04:40:20;;;;;;;4.28;2.10;;;;;;;4.81;76.38;100052.00;5030833;28;20037;-23
2022/02/06 05:30:12;;;;;;;2.05;1.85;;;;;;;5.02;77.71;99988.47;5024391;28;21168;-23
2022/02/06 05:32:48;;;;;;;3.72;2.42;;;;;;;5.01;78.05;99968.44;5018306;28;20039;-23
2022/02/06 05:35:14;;;;;;;5.57;2.03;;;;;;;5.00;78.26;99971.91;5023992;28;20029;-23
2022/02/06 05:37:39;;;;;;;3.05;1.67;;;;;;;4.99;77.94;99971.06;5026676;28;20040;-23
2022/02/06 05:40:06;;;;;;;6.70;2.35;;;;;;;4.98;78.17;99956.25;5019241;28;20022;-23
2022/02/06 05:42:32;;;;;;;3.08;2.03;;;;;;;4.99;78.58;99963.22;5024268;28;20026;-23
2022/02/06 05:44:58;;;;;;;2.17;1.98;;;;;;;4.98;78.25;99944.91;5023572;28;20400;-23
2022/02/06 05:47:25;;;;;;;4.90;2.53;;;;;;;4.96;78.58;99950.13;5023521;28;20033;-23
2022/02/06 05:49:51;;;;;;;2.30;2.10;;;;;;;4.96;78.85;99929.22;5023522;28;20036;-23
2022/02/06 05:52:22;;;;;;;4.20;2.30;;;;;;;4.93;78.41;99949.28;5022815;28;20117;-23
2022/02/06 05:54:48;;;;;;;8.30;2.58;;;;;;;4.96;78.23;99910.94;5026038;28;20025;-23
2022/02/06 05:57:14;;;;;;;2.50;2.30;;;;;;;4.93;79.00;99924.00;5028931;28;20029;-23
2022/02/06 05:59:40;;;;;;;3.35;2.22;;;;;;;4.90;78.23;99916.13;5027182;28;20394;-23
2022/02/06 06:02:06;;;;;;;5.60;2.38;;;;;;;4.93;78.63;99920.53;5030068;28;20029;-23
2022/02/06 06:04:32;;;;;;;6.18;2.60;;;;;;;4.91;78.73;99923.13;5030739;28;20025;-23
2022/02/06 06:06:58;;;;;;;3.42;2.58;;;;;;;4.91;78.85;99927.47;5026938;28;20025;-23
2022/02/06 06:09:24;;;;;;;2.13;2.03;;;;;;;4.94;79.12;99911.81;5031129;28;20026;-23
2022/02/06 06:11:49;;;;;;;4.60;2.38;;;;;;;4.94;79.31;99917.88;5028375;28;20120;-23
2022/02/06 06:14:15;;;;;;;2.72;1.85;;;;;;;4.91;78.45;99907.44;5028148;28;20507;-23
2022/02/06 06:16:41;;;;;;;4.43;2.90;;;;;;;4.92;78.70;99919.63;5029649;28;20030;-23
2022/02/06 06:19:07;;;;;;;3.95;2.17;;;;;;;4.91;78.46;99915.28;5031420;28;20029;-23
2022/02/06 06:21:42;;;;;;;2.25;2.10;;;;;;;4.92;79.13;99906.56;5028592;28;20385;-23
2022/02/06 06:24:08;;;;;;;4.70;2.30;;;;;;;4.93;78.88;99897.84;5030517;28;20025;-23
2022/02/06 06:26:38;;;;;;;4.68;2.47;;;;;;;4.92;79.26;99897.84;5031446;28;20025;-23
2022/02/06 06:29:04;;;;;;;6.18;3.22;;;;;;;4.94;78.74;99898.75;5027519;28;20075;-23
2022/02/06 06:31:30;;;;;;;3.47;2.25;;;;;;;4.94;79.17;99896.13;5030505;28;20066;-23
2022/02/06 06:33:55;;;;;;;4.90;3.25;;;;;;;4.95;79.21;99903.97;5029056;28;20107;-23
2022/02/06 06:36:21;;;;;;;5.93;2.83;;;;;;;4.94;79.14;99888.28;5028633;28;20512;-23
2022/02/06 06:38:50;;;;;;;3.55;2.88;;;;;;;4.93;79.20;99895.25;5029275;28;20607;-23
2022/02/06 06:41:16;;;;;;;7.57;2.65;;;;;;;4.95;78.62;99895.25;5027707;28;20029;-23
2022/02/06 06:43:42;;;;;;;3.30;2.60;;;;;;;4.95;78.98;99883.06;5026316;28;20040;-23
2022/02/06 06:46:07;;;;;;;3.28;2.83;;;;;;;4.95;78.92;99885.69;5028184;28;20021;-23
2022/02/06 06:48:33;;;;;;;4.13;2.63;;;;;;;4.97;79.52;99875.22;5028026;28;20025;-23
2022/02/06 06:50:59;;;;;;;4.07;2.40;;;;;;;4.96;78.85;99869.13;5033829;28;20037;-23
2022/02/06 06:53:25;;;;;;;3.83;2.60;;;;;;;4.96;79.84;99871.72;5025749;28;20041;-23
2022/02/06 06:56:01;;;;;;;5.90;2.92;;;;;;;4.96;79.52;99873.47;5029162;28;20029;-23
2022/02/06 06:58:31;;;;;;;4.38;2.70;;;;;;;4.97;79.20;99862.16;5027130;28;20413;-23
2022/02/06 07:03:26;;;;;;;4.22;2.70;;;;;;;4.98;79.28;99858.66;5028276;28;20022;-23
2022/02/06 07:05:52;;;;;;;5.43;2.88;;;;;;;4.97;79.19;99860.41;5025254;28;20025;-23
2022/02/06 07:08:19;;;;;;;5.72;2.67;;;;;;;4.97;79.63;99860.41;5028244;28;20482;-23
2022/02/06 07:10:47;;;;;;;4.40;2.72;;;;;;;4.97;79.48;99849.94;5023022;28;20039;-23
2022/02/06 07:13:13;;;;;;;3.15;2.85;;;;;;;4.97;79.78;99859.53;5027453;28;20044;-23
2022/02/06 07:15:40;;;;;;;4.30;2.60;;;;;;;4.97;79.88;99844.72;5030069;28;20036;-23
2022/02/06 07:18:06;;;;;;;2.83;2.40;;;;;;;4.97;79.66;99842.09;5028369;28;20072;-23
2022/02/06 07:20:33;;;;;;;5.35;2.58;;;;;;;4.96;79.47;99845.59;5029439;28;20029;-23
2022/02/06 07:22:59;;;;;;;2.67;2.30;;;;;;;4.97;79.42;99846.47;5024725;28;20068;-23
2022/02/06 07:25:26;;;;;;;5.75;2.70;;;;;;;4.98;79.45;99850.81;5025428;28;20029;-23
2022/02/06 07:27:53;;;;;;;4.18;2.45;;;;;;;4.98;79.45;99856.06;5028670;28;20029;-23
2022/02/06 07:30:20;;;;;;;3.92;2.20;;;;;;;4.98;79.22;99856.94;5009682;28;20026;-23
2022/02/06 07:32:45;;;;;;;6.32;2.13;;;;;;;4.97;78.99;99847.31;5027157;28;20037;-23
2022/02/06 07:35:12;;;;;;;5.32;2.20;;;;;;;4.97;79.49;99870.84;5029067;28;20048;-23
2022/02/06 07:37:54;;;;;;;6.25;2.90;;;;;;;4.97;79.97;99852.56;5028591;28;20482;-23
2022/02/06 07:40:21;;;;;;;3.55;2.83;;;;;;;5.00;79.63;99855.19;5027579;28;20040;-23
2022/02/06 07:42:47;;;;;;;2.78;2.20;;;;;;;5.00;79.59;99865.63;5023267;28;20018;-23
2022/02/06 07:45:14;;;;;;;5.03;2.75;;;;;;;5.01;79.09;99856.91;5025850;28;20104;-23
2022/02/06 07:47:42;;;;;;;3.58;2.38;;;;;;;5.01;79.22;99856.91;5028868;28;20501;-23
2022/02/06 07:50:09;;;;;;;2.55;2.35;;;;;;;5.04;79.44;99855.19;5026758;28;20021;-23
2022/02/06 07:52:34;;;;;;;2.75;1.90;;;;;;;5.03;79.68;99853.44;5025708;28;20376;-23
2022/02/06 07:55:03;;;;;;;2.47;2.10;;;;;;;5.04;79.43;99840.38;5027963;28;20476;-23
2022/02/06 07:57:29;;;;;;;2.92;1.77;;;;;;;5.08;79.50;99843.84;5028485;28;20021;-23
2022/02/06 07:59:55;;;;;;;4.93;2.08;;;;;;;5.07;79.96;99834.28;5025747;28;20021;-23
2022/02/06 08:02:20;;;;;;;2.50;1.88;;;;;;;5.08;79.56;99831.69;5025894;28;20617;-23
2022/02/06 08:04:48;;;;;;;2.10;1.90;;;;;;;5.10;78.83;99829.06;5023733;28;20036;-23
2022/02/06 08:07:15;;;;;;;4.65;2.35;;;;;;;5.11;79.22;99830.78;5027704;28;20037;-25
2022/02/06 08:12:07;;;;;;;1.80;1.70;;;;;;;5.14;79.16;99817.72;5027133;28;20061;-25
2022/02/06 08:14:50;;;;;;;6.65;2.13;;;;;;;5.15;79.17;99827.31;5026153;28;20021;-25
2022/02/06 08:17:20;;;;;;;4.60;2.00;;;;;;;5.17;79.55;99809.84;5024335;28;20056;-25
2022/02/06 08:19:47;;;;;;;3.15;2.28;;;;;;;5.19;79.26;99810.75;5026574;28;20059;-23
2022/02/06 08:22:14;;;;;;;2.65;1.75;;;;;;;5.20;79.31;99804.63;5024972;28;20017;-23
2022/02/06 08:24:40;;;;;;;2.53;1.77;;;;;;;5.18;78.84;99795.06;5022789;28;20029;-23
2022/02/06 08:27:05;;;;;;;2.58;2.35;;;;;;;5.23;79.22;99804.63;5027529;28;20025;-23
2022/02/06 08:29:32;;;;;;;1.60;1.50;;;;;;;5.24;79.54;99806.38;5025637;28;20094;-23
2022/02/06 08:31:58;;;;;;;3.17;1.70;;;;;;;5.26;79.22;99786.34;5027534;28;20308;-23
2022/02/06 08:34:24;;;;;;;2.13;1.92;;;;;;;5.28;79.11;99768.03;5023154;28;20029;-23
2022/02/06 08:36:49;;;;;;;3.38;2.00;;;;;;;5.29;79.01;99779.34;5026902;28;20087;-23
2022/02/06 08:39:15;;;;;;;2.42;2.03;;;;;;;5.30;79.46;99800.25;5024188;28;20022;-23
2022/02/06 08:41:41;;;;;;;2.05;1.70;;;;;;;5.28;79.53;99788.94;5024134;28;20507;-23
2022/02/06 08:44:07;;;;;;;2.42;1.80;;;;;;;5.33;79.58;99763.66;5026340;28;21113;-23
2022/02/06 08:46:33;;;;;;;2.00;1.80;;;;;;;5.37;79.00;99759.31;5026343;28;20055;-24
2022/02/06 08:48:58;;;;;;;2.13;1.95;;;;;;;5.38;79.02;99746.19;5023985;28;20115;-23
2022/02/06 08:51:24;;;;;;;2.63;1.30;;;;;;;5.40;78.94;99738.34;5028403;28;20444;-23
2022/02/06 08:53:52;;;;;;;1.92;1.50;;;;;;;5.41;79.40;99729.66;5027735;28;20098;-23
2022/02/06 08:56:18;;;;;;;1.48;1.20;;;;;;;5.45;79.51;99746.19;5028318;28;20029;-23
2022/02/06 08:58:44;;;;;;;3.30;1.73;;;;;;;5.48;79.16;99756.66;5027809;28;20037;-25
2022/02/06 09:01:10;;;;;;;1.67;1.45;;;;;;;5.50;78.97;99768.84;5026464;28;20024;-25
2022/02/06 09:03:35;;;;;;;3.75;1.45;;;;;;;5.49;79.23;99732.22;5026727;28;20689;-25
2022/02/06 09:06:01;;;;;;;1.63;1.45;;;;;;;5.54;79.44;99756.66;5024572;28;20025;-25
2022/02/06 09:08:27;;;;;;;1.50;1.40;;;;;;;5.56;79.12;99748.75;5019101;28;20041;-25
2022/02/06 09:10:53;;;;;;;1.45;1.35;;;;;;;5.60;79.52;99740.91;5022745;28;20029;-25
2022/02/06 09:13:19;;;;;;;1.50;1.40;;;;;;;5.62;79.34;99749.63;5022867;28;20079;-25
2022/02/06 09:15:45;;;;;;;2.08;1.65;;;;;;;5.65;79.44;99743.50;5021908;28;20410;-25
2022/02/06 09:18:11;;;;;;;1.73;1.50;;;;;;;5.68;78.94;99733.03;5023100;28;20506;-23
2022/02/06 09:20:37;;;;;;;1.40;1.30;;;;;;;5.71;79.14;99760.94;5021120;28;20503;-23
2022/02/06 09:23:03;;;;;;;2.40;1.30;;;;;;;5.73;79.22;99730.38;5022965;28;20028;-25
2022/02/06 09:25:29;;;;;;;2.13;1.92;;;;;;;5.75;79.17;99712.94;5022364;28;20056;-24
2022/02/06 09:27:55;;;;;;;2.17;1.88;;;;;;;5.76;79.42;99709.44;5024065;28;20060;-25
2022/02/06 09:30:25;;;;;;;1.65;1.38;;;;;;;5.75;79.36;99700.75;5028112;28;20068;-25
2022/02/06 09:35:18;;;;;;;3.03;1.40;;;;;;;5.83;79.44;99699.84;5024333;28;20398;-25
2022/02/06 09:37:44;;;;;;;1.83;1.40;;;;;;;5.85;78.88;99687.59;5026395;28;20109;-25
2022/02/06 09:40:13;;;;;;;1.52;1.42;;;;;;;5.88;78.76;99687.59;5024308;28;20131;-25
2022/02/06 09:42:47;;;;;;;2.90;1.50;;;;;;;5.91;79.13;99698.03;5025864;28;20113;-25
2022/02/06 09:45:13;;;;;;;1.67;1.58;;;;;;;5.92;79.00;99665.75;5024408;28;20068;-25
2022/02/06 09:47:40;;;;;;;2.08;1.50;;;;;;;5.97;79.28;99677.03;5024369;28;20071;-25
2022/02/06 09:50:07;;;;;;;2.40;1.50;;;;;;;5.99;79.15;99669.19;5024224;28;20485;-23
2022/02/06 09:52:34;;;;;;;1.63;1.50;;;;;;;6.01;79.03;99684.00;5024246;28;20496;-25
2022/02/06 09:55:08;;;;;;;3.25;1.45;;;;;;;6.05;79.33;99648.25;5023470;28;20022;-26
2022/02/06 09:57:51;;;;;;;1.48;1.20;;;;;;;6.08;78.95;99656.09;5022144;28;20026;-25
2022/02/06 10:00:19;;;;;;;1.40;1.30;;;;;;;6.13;78.83;99637.72;5026722;28;20025;-26
2022/02/06 10:02:47;;;;;;;1.20;1.10;;;;;;;6.16;79.04;99649.03;5024745;28;20012;-26
2022/02/06 10:05:15;;;;;;;1.35;1.10;;;;;;;6.21;79.40;99614.09;5030724;28;20562;-25
2022/02/06 10:07:45;;;;;;;1.20;1.10;;;;;;;6.22;78.75;99595.75;5033097;28;20020;-26
2022/02/06 10:10:13;;;;;;;1.63;1.52;;;;;;;6.25;79.03;99590.50;5027484;28;20071;-26
2022/02/06 10:12:42;;;;;;;1.58;1.02;;;;;;;6.29;78.49;99573.00;5029906;28;20033;-26
2022/02/06 10:15:14;;;;;;;2.00;1.65;;;;;;;6.33;78.67;99579.09;5031194;28;20384;-25
2022/02/06 10:17:40;;;;;;;1.60;1.50;;;;;;;6.34;78.29;99565.94;5030362;28;20500;-26
2022/02/06 10:20:33;;;;;;;1.23;1.20;;;;;;;6.36;78.34;99576.41;5028948;28;20112;-26
2022/02/06 10:23:04;;;;;;;2.20;1.10;;;;;;;6.39;78.43;99573.78;5025027;28;20017;-25
2022/02/06 10:25:47;;;;;;;1.02;1.00;;;;;;;6.44;77.86;99551.03;5037886;28;20112;-25
2022/02/06 10:28:35;;;;;;;1.25;1.15;;;;;;;6.49;78.23;99544.00;5029876;28;20017;-25
2022/02/06 10:31:04;;;;;;;1.38;1.10;;;;;;;6.52;78.12;99554.44;5028153;28;20504;-26
2022/02/06 10:33:52;;;;;;;2.88;1.00;;;;;;;6.57;78.40;99564.00;5028172;28;20477;-25
2022/02/06 10:36:24;;;;;;;2.45;1.05;;;;;;;6.59;78.49;99534.28;5030862;28;20108;-26
2022/02/06 10:39:03;;;;;;;1.90;1.20;;;;;;;6.64;77.81;99542.94;5003090;28;20080;-25
2022/02/06 10:41:29;;;;;;;1.48;1.17;;;;;;;6.67;77.52;99558.66;5025942;28;20123;-26
2022/02/06 10:43:57;;;;;;;0.88;0.88;;;;;;;6.72;77.45;99518.41;5021383;28;20041;-26
2022/02/06 10:46:24;;;;;;;2.38;0.77;;;;;;;6.74;77.94;99569.91;5021187;28;20037;-25
2022/02/06 10:48:52;;;;;;;1.35;1.15;;;;;;;6.75;76.97;99527.13;5028782;28;20030;-26
2022/02/06 10:51:41;;;;;;;1.80;1.00;;;;;;;6.81;77.24;99523.56;5025285;28;20504;-25
2022/02/06 10:54:12;;;;;;;1.00;0.90;;;;;;;6.82;77.38;99511.31;5028141;28;20068;-26
2022/02/06 10:57:07;;;;;;;1.25;1.00;;;;;;;6.86;76.90;99526.09;5028646;28;20450;-26
2022/02/06 10:59:52;;;;;;;1.65;1.00;;;;;;;6.88;76.44;99530.47;5028652;28;20389;-24
2022/02/06 11:02:26;;;;;;;0.95;0.95;;;;;;;6.91;76.71;99503.34;5025508;28;20033;-25
2022/02/06 11:07:57;;;;;;;1.55;1.25;;;;;;;6.93;76.08;99527.75;5023464;28;20136;-26
2022/02/06 11:10:24;;;;;;;1.63;1.38;;;;;;;6.96;76.40;99500.63;5007288;28;20091;-25
2022/02/06 11:12:55;;;;;;;0.77;0.77;;;;;;;6.97;76.23;99490.13;5026983;28;20083;-25
2022/02/06 11:15:24;;;;;;;0.80;0.80;;;;;;;6.98;76.16;99496.25;5026617;28;20084;-25
2022/02/06 11:18:09;;;;;;;1.48;0.85;;;;;;;6.98;76.54;99463.06;5025526;28;20099;-25
2022/02/06 11:20:36;;;;;;;1.55;0.95;;;;;;;7.00;76.11;99456.03;5024418;28;20524;-24
2022/02/06 11:23:03;;;;;;;1.95;1.00;;;;;;;7.00;76.54;99427.19;5003119;28;20033;-26
2022/02/06 11:25:33;;;;;;;0.95;0.95;;;;;;;7.02;76.70;99422.78;5022342;28;20481;-26
2022/02/06 11:28:02;;;;;;;1.70;1.05;;;;;;;7.02;76.67;99399.19;5025395;28;20033;-26
2022/02/06 11:30:28;;;;;;;0.82;0.70;;;;;;;7.02;76.44;99406.19;5023849;28;20511;-26
2022/02/06 11:32:54;;;;;;;1.88;1.00;;;;;;;7.03;76.86;99393.06;5026389;28;20123;-26
2022/02/06 11:35:24;;;;;;;0.88;0.88;;;;;;;7.02;77.15;99391.34;5029697;28;20159;-25
2022/02/06 11:44:08;;;;;;;0.90;0.75;;;;;;;7.00;77.61;99403.59;5027291;28;20048;-23
2022/02/06 11:47:05;;;;;;;0.82;0.82;;;;;;;7.00;77.45;99393.09;5026324;28;20029;-26
2022/02/06 11:49:36;;;;;;;1.60;1.25;;;;;;;6.98;77.41;99410.63;5021423;28;20132;-25
2022/02/06 11:52:02;;;;;;;1.17;0.70;;;;;;;6.97;76.59;99394.91;5027536;28;20417;-26
2022/02/06 11:54:43;;;;;;;2.55;0.90;;;;;;;6.97;76.83;99366.09;5026975;28;20029;-25
2022/02/06 11:57:33;;;;;;;0.95;0.80;;;;;;;6.96;76.55;99349.47;5026395;28;20057;-26
2022/02/06 12:00:07;;;;;;;0.82;0.82;;;;;;;6.95;76.40;99337.25;5017532;28;20034;-25
2022/02/06 12:02:35;;;;;;;1.40;0.93;;;;;;;6.96;76.76;99353.84;5023926;28;20049;-25
2022/02/06 12:05:28;;;;;;;0.80;0.80;;;;;;;6.95;76.17;99347.75;5028012;28;20060;-25
2022/02/06 12:08:10;;;;;;;1.02;1.02;;;;;;;6.94;76.45;99335.53;5022554;28;20413;-26
2022/02/06 12:10:36;;;;;;;1.00;0.88;;;;;;;6.95;76.21;99321.53;5029317;28;20493;-26
2022/02/06 12:13:29;;;;;;;0.80;0.80;;;;;;;6.96;76.14;99318.03;5020066;28;20044;-25
2022/02/06 12:15:59;;;;;;;4.53;0.90;;;;;;;6.95;75.83;99303.19;5024218;28;20559;-25
2022/02/06 12:18:36;;;;;;;1.15;0.70;;;;;;;6.96;76.02;99320.63;5029244;28;20393;-26
2022/02/06 12:21:13;;;;;;;1.00;0.90;;;;;;;6.96;75.72;99283.94;5024223;28;20026;-25
2022/02/06 12:23:46;;;;;;;1.27;1.00;;;;;;;6.99;75.69;99283.91;5027490;28;20033;-26
2022/02/06 12:26:31;;;;;;;1.70;0.98;;;;;;;6.99;75.87;99291.75;5028403;28;20029;-25
2022/02/06 12:29:17;;;;;;;0.80;0.80;;;;;;;7.01;75.88;99284.72;5024183;28;20029;-26
2022/02/06 12:32:05;;;;;;;1.90;1.00;;;;;;;7.02;75.94;99264.63;5028698;28;20075;-26
2022/02/06 12:37:39;;;;;;;0.73;0.73;;;;;;;7.05;75.66;99243.59;5023982;28;20055;-25
2022/02/06 12:40:06;;;;;;;0.85;0.82;;;;;;;7.07;75.68;99228.69;5026300;28;20033;-26
2022/02/06 12:42:41;;;;;;;1.42;0.80;;;;;;;7.09;76.07;99226.91;5023256;28;20029;-26
2022/02/06 12:45:15;;;;;;;1.33;0.70;;;;;;;7.11;76.29;99221.66;5026934;28;20032;-25
2022/02/06 12:47:54;;;;;;;0.70;0.70;;;;;;;7.13;76.06;99198.88;5022692;28;20064;-24
2022/02/06 12:50:33;;;;;;;1.85;1.00;;;;;;;7.12;76.31;99198.03;5021191;28;20037;-25
2022/02/06 12:53:00;;;;;;;0.70;0.70;;;;;;;7.17;76.45;99204.03;5021426;28;20041;-24
2022/02/06 12:55:31;;;;;;;0.70;0.70;;;;;;;7.18;76.38;99197.03;5024289;28;20485;-24
2022/02/06 12:57:57;;;;;;;3.75;1.75;;;;;;;7.19;76.09;99186.53;5028710;28;20029;-25
2022/02/06 13:00:23;;;;;;;1.23;0.80;;;;;;;7.20;76.19;99179.50;5026242;28;20029;-25
2022/02/06 13:02:49;;;;;;;0.68;0.68;;;;;;;7.23;76.04;99168.13;5026755;28;20067;-25
2022/02/06 13:05:15;;;;;;;1.25;0.80;;;;;;;7.24;76.09;99169.84;5032560;28;20025;-25
2022/02/06 13:07:44;;;;;;;1.17;0.98;;;;;;;7.25;76.10;99154.09;5034159;28;20447;-26
2022/02/06 13:10:11;;;;;;;1.20;0.90;;;;;;;7.25;75.95;99156.69;5030119;28;20482;-26
2022/02/06 13:31:06;;;;;;;0.50;0.50;;;;;;;7.27;75.13;99099.81;5027911;28;20677;-25
2022/02/06 13:33:39;;;;;;;0.50;0.50;;;;;;;7.26;75.42;99090.25;5021317;28;20508;-26
2022/02/06 13:36:19;;;;;;;0.60;0.50;;;;;;;7.27;75.24;99083.25;5028000;28;20029;-25
2022/02/06 13:38:50;;;;;;;0.77;0.77;;;;;;;7.26;75.27;99065.75;5027212;28;20034;-26
2022/02/06 13:41:19;;;;;;;0.80;0.70;;;;;;;7.26;75.35;99064.00;5031330;28;20033;-25
2022/02/06 13:43:45;;;;;;;1.33;0.63;;;;;;;7.24;75.31;99050.06;5027240;28;20056;-25
2022/02/06 13:46:24;;;;;;;0.98;0.60;;;;;;;7.23;75.89;99048.34;5031367;28;20378;-25
2022/02/06 13:48:50;;;;;;;0.52;0.50;;;;;;;7.22;75.75;99030.88;5038438;28;20029;-25
2022/02/06 13:51:17;;;;;;;0.50;0.50;;;;;;;7.19;75.94;99039.69;5026606;28;20055;-26
2022/02/06 13:54:01;;;;;;;0.60;0.60;;;;;;;7.18;75.75;99018.75;5028533;28;20097;-25
2022/02/06 13:56:30;;;;;;;2.00;0.60;;;;;;;7.15;75.97;99003.06;5026903;28;20025;-25
2022/02/06 13:59:05;;;;;;;0.50;0.50;;;;;;;7.12;76.11;99001.38;5024573;28;20477;-25
2022/02/06 14:01:51;;;;;;;0.50;0.50;;;;;;;7.09;76.62;98992.72;5025548;28;20389;-26
2022/02/06 14:04:28;;;;;;;0.60;0.60;;;;;;;7.06;76.42;98994.53;5025813;28;20219;-25
2022/02/06 14:07:16;;;;;;;0.88;0.63;;;;;;;7.03;76.43;98993.69;5027528;28;20496;-24
2022/02/06 14:12:16;;;;;;;0.60;0.60;;;;;;;6.97;76.90;98973.72;5026782;28;20512;-25
2022/02/06 14:14:53;;;;;;;0.63;0.63;;;;;;;6.93;77.08;98969.44;5026611;28;20055;-25
2022/02/06 14:17:24;;;;;;;1.20;0.60;;;;;;;6.90;77.23;98956.41;5026763;28;20034;-25
2022/02/06 14:19:52;;;;;;;0.57;0.50;;;;;;;6.85;77.27;98961.78;5025591;28;20029;-25
2022/02/06 14:22:37;;;;;;;1.02;0.70;;;;;;;6.82;77.45;98934.75;5028726;28;20113;-25
2022/02/06 14:25:12;;;;;;;0.47;0.47;;;;;;;6.77;77.79;98930.47;5028348;28;20021;-25